createdAt,value
2017-10-18T00:00:34.050Z,8.40
2017-10-18T00:03:02.646Z,8.40
2017-10-18T00:05:30.214Z,8.40
2017-10-18T00:07:57.805Z,8.40
2017-10-18T00:10:25.400Z,8.30
2017-10-18T00:12:53.746Z,8.30
2017-10-18T00:15:21.316Z,8.30
2017-10-18T00:17:48.880Z,8.30
2017-10-18T00:20:17.240Z,8.30
2017-10-18T00:22:44.815Z,8.30
2017-10-18T00:25:12.399Z,8.30
2017-10-18T00:27:39.957Z,8.20
2017-10-18T00:30:07.520Z,8.10
2017-10-18T00:32:35.146Z,8.10
2017-10-18T00:35:02.736Z,8.10
2017-10-18T00:37:30.307Z,8.10
2017-10-18T00:39:57.923Z,8.20
2017-10-18T00:42:26.268Z,8.30
2017-10-18T00:44:53.836Z,8.20
2017-10-18T00:47:21.430Z,8.30
2017-10-18T00:49:49.760Z,8.30
2017-10-18T00:52:17.351Z,8.30
2017-10-18T00:54:44.906Z,8.20
2017-10-18T00:57:12.465Z,8.10
2017-10-18T00:59:40.083Z,8.00
2017-10-18T01:02:08.385Z,8.00
2017-10-18T01:04:36.001Z,8.00
2017-10-18T01:07:03.558Z,8.00
2017-10-18T01:09:31.118Z,8.00
2017-10-18T01:11:58.699Z,7.90
2017-10-18T01:14:26.244Z,7.90
2017-10-18T01:16:53.804Z,8.00
2017-10-18T01:19:21.378Z,8.00
2017-10-18T01:21:48.951Z,8.00
2017-10-18T01:24:17.305Z,8.10
2017-10-18T01:26:44.915Z,8.00
2017-10-18T01:29:12.487Z,8.00
2017-10-18T01:31:40.860Z,8.00
2017-10-18T01:34:08.412Z,8.00
2017-10-18T01:36:36.014Z,8.00
2017-10-18T01:39:04.400Z,8.00
2017-10-18T01:41:31.953Z,8.00
2017-10-18T01:44:00.306Z,7.90
2017-10-18T01:46:27.868Z,7.90
2017-10-18T01:48:55.439Z,7.90
2017-10-18T01:51:22.970Z,8.00
2017-10-18T01:53:50.554Z,7.90
2017-10-18T01:56:18.136Z,7.90
2017-10-18T01:58:45.666Z,7.80
2017-10-18T02:01:13.222Z,7.80
2017-10-18T02:03:40.809Z,7.90
2017-10-18T02:06:08.750Z,8.00
2017-10-18T02:08:36.296Z,8.00
2017-10-18T02:11:03.917Z,8.00
2017-10-18T02:13:31.449Z,8.00
2017-10-18T02:15:59.285Z,7.90
2017-10-18T02:18:26.862Z,8.00
2017-10-18T02:20:55.220Z,7.90
2017-10-18T02:23:22.768Z,7.80
2017-10-18T02:25:50.337Z,7.80
2017-10-18T02:28:17.930Z,7.80
2017-10-18T02:30:46.232Z,7.80
2017-10-18T02:33:13.838Z,7.80
2017-10-18T02:35:41.609Z,7.70
2017-10-18T02:38:09.184Z,7.70
2017-10-18T02:40:36.748Z,7.70
2017-10-18T02:43:04.299Z,7.70
2017-10-18T02:45:31.864Z,7.70
2017-10-18T02:47:59.428Z,7.70
2017-10-18T02:50:26.958Z,7.70
2017-10-18T02:52:54.524Z,7.80
2017-10-18T02:55:22.080Z,7.80
2017-10-18T02:57:49.670Z,7.80
2017-10-18T03:00:17.254Z,7.80
2017-10-18T03:02:44.851Z,7.90
2017-10-18T03:05:13.169Z,7.90
2017-10-18T03:07:40.785Z,7.90
2017-10-18T03:10:08.371Z,7.90
2017-10-18T03:12:35.962Z,7.90
2017-10-18T03:15:03.553Z,8.00
2017-10-18T03:17:31.159Z,8.00
2017-10-18T03:19:59.495Z,8.00
2017-10-18T03:22:27.033Z,8.00
2017-10-18T03:24:54.600Z,8.00
2017-10-18T03:27:22.162Z,8.10
2017-10-18T03:29:49.747Z,8.00
2017-10-18T03:32:17.295Z,8.00
2017-10-18T03:34:44.866Z,8.00
2017-10-18T03:37:12.449Z,8.00
2017-10-18T03:39:40.024Z,7.90
2017-10-18T03:42:07.593Z,7.90
2017-10-18T03:44:35.143Z,7.80
2017-10-18T03:47:06.534Z,7.80
2017-10-18T03:49:34.099Z,7.90
2017-10-18T03:52:01.740Z,7.90
2017-10-18T03:54:29.311Z,7.90
2017-10-18T03:56:56.868Z,7.90
2017-10-18T03:59:24.522Z,7.80
2017-10-18T04:01:53.168Z,7.80
2017-10-18T04:04:21.504Z,7.80
2017-10-18T04:06:49.056Z,7.80
2017-10-18T04:09:17.469Z,7.70
2017-10-18T04:11:45.033Z,7.70
2017-10-18T04:14:12.653Z,7.60
2017-10-18T04:16:40.224Z,7.60
2017-10-18T04:19:07.798Z,7.50
2017-10-18T04:21:35.429Z,7.50
2017-10-18T04:24:03.077Z,7.40
2017-10-18T04:26:33.670Z,7.40
2017-10-18T04:29:01.298Z,7.40
2017-10-18T04:31:28.931Z,7.40
2017-10-18T04:33:56.512Z,7.40
2017-10-18T04:36:24.896Z,7.40
2017-10-18T04:38:52.685Z,7.40
2017-10-18T04:41:23.165Z,7.40
2017-10-18T04:43:50.844Z,7.40
2017-10-18T04:46:20.236Z,7.40
2017-10-18T04:48:48.108Z,7.40
2017-10-18T04:51:15.681Z,7.40
2017-10-18T04:53:43.231Z,7.50
2017-10-18T04:56:10.776Z,7.40
2017-10-18T04:58:38.349Z,7.40
2017-10-18T05:01:06.008Z,7.20
2017-10-18T05:03:33.721Z,7.20
2017-10-18T05:06:01.333Z,7.20
2017-10-18T05:08:29.913Z,7.20
2017-10-18T05:10:58.354Z,7.20
2017-10-18T05:13:25.938Z,7.20
2017-10-18T05:15:54.274Z,7.20
2017-10-18T05:18:21.846Z,7.20
2017-10-18T05:20:49.408Z,7.20
2017-10-18T05:23:16.983Z,7.30
2017-10-18T05:25:45.442Z,7.30
2017-10-18T05:28:13.123Z,7.30
2017-10-18T05:30:40.679Z,7.30
2017-10-18T05:33:08.262Z,7.30
2017-10-18T05:35:35.845Z,7.30
2017-10-18T05:38:03.409Z,7.40
2017-10-18T05:40:30.998Z,7.30
2017-10-18T05:42:59.334Z,7.30
2017-10-18T05:45:26.902Z,7.30
2017-10-18T05:47:55.347Z,7.30
2017-10-18T05:53:03.622Z,7.10
2017-10-18T05:55:31.247Z,7.10
2017-10-18T05:58:05.718Z,7.00
2017-10-18T06:00:33.508Z,6.90
2017-10-18T06:03:01.126Z,7.00
2017-10-18T06:05:28.673Z,7.00
2017-10-18T06:07:56.265Z,7.00
2017-10-18T06:10:23.836Z,7.00
2017-10-18T06:12:51.413Z,7.10
2017-10-18T06:15:19.004Z,7.20
2017-10-18T06:17:46.722Z,7.20
2017-10-18T06:20:14.342Z,7.20
2017-10-18T06:22:42.983Z,7.30
2017-10-18T06:25:11.392Z,7.50
2017-10-18T06:27:38.921Z,7.50
2017-10-18T06:30:06.520Z,7.70
2017-10-18T06:32:34.201Z,7.80
2017-10-18T06:35:01.844Z,7.80
2017-10-18T06:37:29.452Z,7.90
2017-10-18T06:39:57.793Z,8.00
2017-10-18T06:42:25.397Z,8.00
2017-10-18T06:44:53.724Z,8.10
2017-10-18T06:47:21.295Z,8.10
2017-10-18T06:49:49.445Z,8.20
2017-10-18T06:52:17.099Z,8.30
2017-10-18T06:54:44.682Z,8.50
2017-10-18T06:57:12.234Z,8.70
2017-10-18T06:59:39.798Z,8.80
2017-10-18T07:02:07.364Z,9.00
2017-10-18T07:04:34.915Z,9.00
2017-10-18T07:07:02.527Z,9.10
2017-10-18T07:09:30.084Z,9.30
2017-10-18T07:11:57.634Z,9.50
2017-10-18T07:14:25.178Z,9.70
2017-10-18T07:16:52.740Z,10.00
2017-10-18T07:19:21.054Z,10.50
2017-10-18T07:21:49.585Z,10.50
2017-10-18T07:24:17.205Z,10.80
2017-10-18T07:26:44.764Z,11.00
2017-10-18T07:29:12.315Z,11.30
2017-10-18T07:31:39.908Z,11.50
2017-10-18T07:34:07.455Z,11.80
2017-10-18T07:36:35.026Z,12.10
2017-10-18T07:39:02.550Z,12.50
2017-10-18T07:41:30.908Z,13.20
2017-10-18T07:43:58.479Z,13.20
2017-10-18T07:46:26.033Z,13.60
2017-10-18T07:48:53.612Z,14.00
2017-10-18T07:51:21.222Z,14.40
2017-10-18T07:53:48.816Z,14.90
2017-10-18T07:56:16.407Z,15.50
2017-10-18T07:58:43.996Z,16.10
2017-10-18T08:01:12.322Z,17.20
2017-10-18T08:03:39.884Z,17.20
2017-10-18T08:06:07.461Z,18.20
2017-10-18T08:08:35.000Z,19.30
2017-10-18T08:11:02.574Z,20.40
2017-10-18T08:13:30.125Z,21.30
2017-10-18T08:15:58.826Z,21.70
2017-10-18T08:18:26.632Z,22.30
2017-10-18T08:20:54.636Z,23.70
2017-10-18T08:23:23.037Z,25.00
2017-10-18T08:25:51.630Z,24.90
2017-10-18T08:28:19.212Z,26.00
2017-10-18T08:30:46.766Z,26.70
2017-10-18T08:33:14.312Z,27.30
2017-10-18T08:35:41.826Z,27.40
2017-10-18T08:38:09.389Z,26.90
2017-10-18T08:40:36.942Z,27.30
2017-10-18T08:43:05.513Z,28.20
2017-10-18T08:45:33.071Z,28.80
2017-10-18T08:48:00.667Z,29.30
2017-10-18T08:50:28.261Z,29.90
2017-10-18T08:52:55.838Z,30.60
2017-10-18T08:55:24.193Z,31.00
2017-10-18T08:57:51.755Z,30.90
2017-10-18T09:00:19.439Z,30.90
2017-10-18T09:02:47.015Z,30.30
2017-10-18T09:05:15.569Z,29.90
2017-10-18T09:07:43.569Z,29.90
2017-10-18T09:10:11.301Z,29.90
2017-10-18T09:12:38.849Z,29.90
2017-10-18T09:15:06.635Z,29.80
2017-10-18T09:17:34.191Z,28.70
2017-10-18T09:20:01.787Z,26.80
2017-10-18T09:22:29.353Z,25.30
2017-10-18T09:24:56.910Z,24.20
2017-10-18T09:27:24.548Z,22.70
2017-10-18T09:29:52.106Z,21.60
2017-10-18T09:32:19.649Z,21.00
2017-10-18T09:34:47.230Z,20.50
2017-10-18T09:37:14.819Z,20.40
2017-10-18T09:39:42.387Z,21.20
2017-10-18T09:42:10.750Z,23.80
2017-10-18T09:44:38.530Z,23.70
2017-10-18T09:47:06.283Z,24.40
2017-10-18T09:49:33.860Z,24.50
2017-10-18T09:52:01.557Z,24.10
2017-10-18T09:54:30.155Z,23.30
2017-10-18T09:56:57.692Z,22.70
2017-10-18T09:59:25.247Z,21.80
2017-10-18T10:01:53.039Z,21.20
2017-10-18T10:04:20.829Z,20.70
2017-10-18T10:06:48.555Z,20.30
2017-10-18T10:09:16.228Z,19.90
2017-10-18T10:11:43.783Z,19.70
2017-10-18T10:14:11.335Z,19.50
2017-10-18T10:16:38.970Z,19.50
2017-10-18T10:19:07.307Z,19.60
2017-10-18T10:21:35.204Z,19.50
2017-10-18T10:24:02.874Z,19.50
2017-10-18T10:26:30.433Z,19.70
2017-10-18T10:28:57.998Z,19.70
2017-10-18T10:31:26.601Z,19.80
2017-10-18T10:33:55.200Z,19.90
2017-10-18T10:36:23.602Z,20.10
2017-10-18T10:38:51.230Z,20.10
2017-10-18T10:41:19.618Z,20.30
2017-10-18T10:43:49.139Z,20.40
2017-10-18T10:46:17.885Z,20.40
2017-10-18T10:48:46.282Z,20.30
2017-10-18T10:51:14.101Z,20.30
2017-10-18T10:53:41.706Z,20.40
2017-10-18T10:56:09.266Z,20.30
2017-10-18T10:58:37.102Z,20.50
2017-10-18T11:01:04.928Z,20.60
2017-10-18T11:03:32.771Z,20.60
2017-10-18T11:06:00.508Z,20.70
2017-10-18T11:08:28.286Z,21.10
2017-10-18T11:10:56.141Z,21.80
2017-10-18T11:13:23.765Z,22.60
2017-10-18T11:15:51.438Z,23.60
2017-10-18T11:18:19.077Z,24.60
2017-10-18T11:20:46.866Z,24.90
2017-10-18T11:23:14.429Z,25.10
2017-10-18T11:25:42.048Z,25.30
2017-10-18T11:28:10.573Z,27.90
2017-10-18T11:30:38.120Z,27.80
2017-10-18T11:33:05.721Z,29.20
2017-10-18T11:35:33.595Z,30.30
2017-10-18T11:38:03.348Z,32.60
2017-10-18T11:40:31.432Z,32.50
2017-10-18T11:42:59.169Z,32.60
2017-10-18T11:45:28.305Z,33.10
2017-10-18T11:47:55.996Z,33.00
2017-10-18T11:50:23.716Z,33.20
2017-10-18T11:52:51.783Z,33.50
2017-10-18T11:55:20.456Z,32.80
2017-10-18T11:57:48.284Z,32.80
2017-10-18T12:00:15.866Z,32.90
2017-10-18T12:02:44.937Z,33.40
2017-10-18T12:05:12.549Z,33.20
2017-10-18T12:07:40.094Z,33.10
2017-10-18T12:10:07.733Z,32.90
2017-10-18T12:12:36.300Z,32.60
2017-10-18T12:15:04.683Z,32.80
2017-10-18T12:17:32.250Z,32.80
2017-10-18T12:19:59.994Z,32.10
2017-10-18T12:22:28.723Z,32.20
2017-10-18T12:24:57.044Z,32.40
2017-10-18T12:27:24.604Z,32.40
2017-10-18T12:29:52.256Z,32.40
2017-10-18T12:32:19.999Z,31.70
2017-10-18T12:34:48.355Z,31.30
2017-10-18T12:37:16.001Z,31.30
2017-10-18T12:39:43.896Z,31.70
2017-10-18T12:42:11.466Z,31.70
2017-10-18T12:44:39.049Z,32.00
2017-10-18T12:47:07.373Z,32.20
2017-10-18T12:49:34.940Z,32.10
2017-10-18T12:52:02.617Z,32.50
2017-10-18T12:54:30.221Z,33.10
2017-10-18T12:56:57.814Z,33.40
2017-10-18T12:59:25.432Z,33.40
2017-10-18T13:01:52.976Z,33.00
2017-10-18T13:04:20.543Z,32.20
2017-10-18T13:06:48.178Z,31.90
2017-10-18T13:09:15.715Z,31.40
2017-10-18T13:11:44.088Z,31.30
2017-10-18T13:14:11.654Z,31.20
2017-10-18T13:16:40.018Z,30.80
2017-10-18T13:19:07.562Z,30.90
2017-10-18T13:21:35.136Z,31.00
2017-10-18T13:24:02.714Z,31.10
2017-10-18T13:26:30.284Z,30.90
2017-10-18T13:28:58.118Z,31.00
2017-10-18T13:31:26.211Z,30.40
2017-10-18T13:33:54.709Z,30.50
2017-10-18T13:36:22.316Z,30.50
2017-10-18T13:38:50.682Z,31.20
2017-10-18T13:41:18.401Z,31.10
2017-10-18T13:43:46.081Z,30.40
2017-10-18T13:46:13.696Z,30.80
2017-10-18T13:48:42.329Z,30.50
2017-10-18T13:51:10.971Z,30.50
2017-10-18T13:53:38.713Z,30.30
2017-10-18T13:56:06.400Z,30.40
2017-10-18T13:58:34.220Z,30.10
2017-10-18T14:01:01.884Z,29.90
2017-10-18T14:03:30.242Z,29.70
2017-10-18T14:05:58.075Z,29.70
2017-10-18T14:08:25.654Z,29.50
2017-10-18T14:10:54.168Z,29.70
2017-10-18T14:13:21.760Z,29.70
2017-10-18T14:15:49.322Z,28.90
2017-10-18T14:18:17.842Z,27.80
2017-10-18T14:20:45.465Z,26.40
2017-10-18T14:23:13.079Z,25.20
2017-10-18T14:25:40.834Z,24.20
2017-10-18T14:28:08.489Z,23.50
2017-10-18T14:30:36.113Z,22.80
2017-10-18T14:33:03.700Z,22.10
2017-10-18T14:35:31.306Z,21.60
2017-10-18T14:37:58.965Z,21.20
2017-10-18T14:40:26.811Z,20.90
2017-10-18T14:42:54.428Z,20.60
2017-10-18T14:45:22.073Z,20.40
2017-10-18T14:47:49.619Z,20.20
2017-10-18T14:50:17.231Z,20.00
2017-10-18T14:52:45.596Z,19.80
2017-10-18T14:55:13.982Z,19.60
2017-10-18T14:57:41.592Z,19.50
2017-10-18T15:00:09.503Z,19.50
2017-10-18T15:02:37.337Z,19.50
2017-10-18T15:05:05.581Z,19.40
2017-10-18T15:07:33.928Z,19.20
2017-10-18T15:10:01.740Z,19.20
2017-10-18T15:12:29.501Z,19.10
2017-10-18T15:14:57.607Z,18.90
2017-10-18T15:17:25.405Z,18.80
2017-10-18T15:19:53.066Z,18.70
2017-10-18T15:22:20.890Z,18.60
2017-10-18T15:24:48.620Z,18.40
2017-10-18T15:27:16.549Z,18.30
2017-10-18T15:29:44.170Z,18.30
2017-10-18T15:32:11.836Z,18.20
2017-10-18T15:34:39.601Z,18.10
2017-10-18T15:37:07.265Z,18.00
2017-10-18T15:39:35.015Z,17.90
2017-10-18T15:42:03.545Z,17.80
2017-10-18T15:44:31.175Z,17.70
2017-10-18T15:46:58.788Z,17.60
2017-10-18T15:49:26.480Z,17.50
2017-10-18T15:51:54.083Z,17.40
2017-10-18T15:54:21.763Z,17.20
2017-10-18T15:56:49.323Z,17.00
2017-10-18T15:59:16.920Z,16.90
2017-10-18T16:01:45.820Z,16.70
2017-10-18T16:04:14.293Z,16.50
2017-10-18T16:06:42.835Z,16.40
2017-10-18T16:09:10.637Z,16.40
2017-10-18T16:11:39.095Z,16.00
2017-10-18T16:14:06.735Z,16.00
2017-10-18T16:16:34.579Z,15.90
2017-10-18T16:19:03.018Z,15.50
2017-10-18T16:21:30.698Z,15.50
2017-10-18T16:23:58.409Z,15.30
2017-10-18T16:26:26.014Z,15.10
2017-10-18T16:28:53.735Z,14.90
2017-10-18T16:31:21.493Z,14.70
2017-10-18T16:33:51.206Z,14.40
2017-10-18T16:36:20.062Z,14.40
2017-10-18T16:38:48.026Z,14.20
2017-10-18T16:41:15.690Z,14.00
2017-10-18T16:43:43.522Z,13.80
2017-10-18T16:46:11.265Z,13.60
2017-10-18T16:48:38.897Z,13.40
2017-10-18T16:51:06.523Z,13.30
2017-10-18T16:53:34.853Z,13.10
2017-10-18T16:56:02.666Z,13.10
2017-10-18T16:58:30.269Z,12.90
2017-10-18T17:00:59.055Z,12.80
2017-10-18T17:03:26.839Z,12.70
2017-10-18T17:05:55.294Z,12.60
2017-10-18T17:08:24.917Z,12.50
2017-10-18T17:10:53.338Z,12.40
2017-10-18T17:13:21.898Z,12.20
2017-10-18T17:18:24.150Z,12.00
2017-10-18T17:20:52.839Z,11.90
2017-10-18T17:23:20.436Z,11.90
2017-10-18T17:25:48.157Z,11.90
2017-10-18T17:28:16.128Z,11.90
2017-10-18T17:30:44.515Z,11.70
2017-10-18T17:33:12.187Z,11.70
2017-10-18T17:35:40.705Z,11.50
2017-10-18T17:38:08.321Z,11.40
2017-10-18T17:40:36.160Z,11.40
2017-10-18T17:43:03.937Z,11.20
2017-10-18T17:45:31.610Z,11.20
2017-10-18T17:47:59.988Z,11.00
2017-10-18T17:50:27.922Z,11.00
2017-10-18T17:52:55.644Z,11.00
2017-10-18T17:55:23.423Z,11.00
2017-10-18T17:57:51.384Z,11.10
2017-10-18T18:00:18.980Z,11.00
2017-10-18T18:02:46.920Z,10.90
2017-10-18T18:05:14.462Z,10.80
2017-10-18T18:07:42.578Z,10.70
2017-10-18T18:10:18.844Z,10.60
2017-10-18T18:12:46.988Z,10.60
2017-10-18T18:15:18.016Z,10.50
2017-10-18T18:17:45.840Z,10.50
2017-10-18T18:20:14.504Z,10.60
2017-10-18T18:22:42.134Z,10.50
2017-10-18T18:25:09.874Z,10.50
2017-10-18T18:27:37.649Z,10.50
2017-10-18T18:30:11.121Z,10.40
2017-10-18T18:32:39.536Z,10.30
2017-10-18T18:35:07.228Z,10.20
2017-10-18T18:37:34.830Z,10.10
2017-10-18T18:40:06.064Z,10.10
2017-10-18T18:42:34.190Z,10.10
2017-10-18T18:45:02.857Z,10.00
2017-10-18T18:47:31.045Z,10.00
2017-10-18T18:49:58.939Z,9.90
2017-10-18T18:52:26.557Z,10.00
2017-10-18T18:54:54.154Z,9.90
2017-10-18T18:57:21.901Z,9.90
2017-10-18T18:59:49.460Z,9.80
2017-10-18T19:02:18.570Z,9.70
2017-10-18T19:04:54.301Z,9.60
2017-10-18T19:07:22.289Z,9.60
2017-10-18T19:09:50.012Z,9.60
2017-10-18T19:12:17.701Z,9.70
2017-10-18T19:14:45.290Z,9.60
2017-10-18T19:17:15.406Z,9.60
2017-10-18T19:19:43.230Z,9.60
2017-10-18T19:22:12.071Z,9.50
2017-10-18T19:24:48.279Z,9.50
2017-10-18T19:27:16.019Z,9.40
2017-10-18T19:29:51.976Z,9.30
2017-10-18T19:32:19.619Z,9.30
2017-10-18T19:34:47.400Z,9.20
2017-10-18T19:37:15.594Z,9.10
2017-10-18T19:39:46.704Z,9.00
2017-10-18T19:42:15.273Z,9.00
2017-10-18T19:44:44.113Z,9.00
2017-10-18T19:47:13.650Z,9.10
2017-10-18T19:49:41.577Z,9.20
2017-10-18T19:52:09.715Z,9.20
2017-10-18T19:54:37.353Z,9.10
2017-10-18T19:57:05.743Z,9.00
2017-10-18T19:59:33.324Z,9.00
2017-10-18T20:02:01.850Z,8.90
2017-10-18T20:04:29.496Z,8.90
2017-10-18T20:06:57.272Z,8.80
2017-10-18T20:09:25.162Z,8.70
2017-10-18T20:11:52.982Z,8.70
2017-10-18T20:14:21.602Z,8.70
2017-10-18T20:16:49.979Z,8.70
2017-10-18T20:19:17.770Z,8.60
2017-10-18T20:21:45.430Z,8.60
2017-10-18T20:24:14.503Z,8.50
2017-10-18T20:26:42.956Z,8.50
2017-10-18T20:29:10.574Z,8.50
2017-10-18T20:31:38.304Z,8.40
2017-10-18T20:34:05.973Z,8.40
2017-10-18T20:36:33.894Z,8.50
2017-10-18T20:39:01.746Z,8.50
2017-10-18T20:41:29.772Z,8.50
2017-10-18T20:43:58.519Z,8.40
2017-10-18T20:46:27.107Z,8.40
2017-10-18T20:48:54.898Z,8.40
2017-10-18T20:51:22.499Z,8.30
2017-10-18T20:53:50.097Z,8.30
2017-10-18T20:56:18.538Z,8.30
2017-10-18T20:58:46.210Z,8.30
2017-10-18T21:01:13.797Z,8.30
2017-10-18T21:03:46.408Z,8.20
2017-10-18T21:06:14.605Z,8.20
2017-10-18T21:08:42.269Z,8.20
2017-10-18T21:11:09.847Z,8.10
2017-10-18T21:13:37.469Z,8.20
2017-10-18T21:16:05.640Z,8.10
2017-10-18T21:18:33.286Z,8.10
2017-10-18T21:21:01.642Z,8.10
2017-10-18T21:23:29.977Z,8.10
2017-10-18T21:25:57.746Z,8.10
2017-10-18T21:28:26.302Z,8.00
2017-10-18T21:30:54.513Z,8.00
2017-10-18T21:33:22.810Z,8.30
2017-10-18T21:35:51.684Z,8.30
2017-10-18T21:38:19.664Z,8.40
2017-10-18T21:40:48.623Z,8.40
2017-10-18T21:43:17.209Z,8.40
2017-10-18T21:45:45.122Z,8.40
2017-10-18T21:48:13.552Z,8.50
2017-10-18T21:50:41.171Z,8.40
2017-10-18T21:53:09.020Z,8.50
2017-10-18T21:55:36.955Z,8.50
2017-10-18T21:58:05.396Z,8.30
2017-10-18T22:00:33.959Z,8.30
2017-10-18T22:03:01.736Z,8.20
2017-10-18T22:05:30.136Z,8.20
2017-10-18T22:08:05.890Z,8.20
2017-10-18T22:10:58.242Z,8.10
2017-10-18T22:16:11.598Z,7.90
2017-10-18T22:18:43.265Z,7.80
2017-10-18T22:21:12.502Z,7.80
2017-10-18T22:23:43.823Z,7.90
2017-10-18T22:29:06.569Z,7.90
2017-10-18T22:31:38.728Z,7.90
2017-10-18T22:34:13.017Z,7.80
2017-10-18T22:36:42.121Z,7.60
2017-10-18T22:39:09.885Z,7.60
2017-10-18T22:41:37.625Z,7.60
2017-10-18T22:44:05.533Z,7.50
2017-10-18T22:46:33.878Z,7.60
2017-10-18T22:49:01.477Z,7.40
2017-10-18T22:51:30.181Z,7.30
2017-10-18T22:53:58.497Z,7.30
2017-10-18T22:56:27.463Z,7.30
2017-10-18T22:58:55.628Z,7.30
2017-10-18T23:01:23.938Z,7.20
2017-10-18T23:03:51.523Z,7.20
2017-10-18T23:06:19.099Z,7.00
2017-10-18T23:08:46.749Z,7.00
2017-10-18T23:11:14.340Z,7.00
2017-10-18T23:13:41.891Z,7.10
2017-10-18T23:16:09.442Z,7.20
2017-10-18T23:18:37.060Z,7.40
2017-10-18T23:21:05.491Z,7.60
2017-10-18T23:23:33.052Z,7.60
2017-10-18T23:26:00.634Z,7.60
2017-10-18T23:28:28.216Z,7.60
2017-10-18T23:30:55.856Z,7.50
2017-10-18T23:33:24.044Z,7.50
2017-10-18T23:35:53.401Z,7.40
2017-10-18T23:38:21.742Z,7.50
2017-10-18T23:40:49.325Z,7.50
2017-10-18T23:43:17.014Z,7.50
2017-10-18T23:45:45.366Z,7.40
2017-10-18T23:48:12.923Z,7.40
2017-10-18T23:50:40.560Z,7.30
2017-10-18T23:53:08.929Z,7.10
2017-10-18T23:55:36.489Z,7.00
2017-10-18T23:58:04.114Z,7.00
